Bangor, New York
Current Conditions -  °F | °C
As of 3:53 PM on Tuesday 21 Oct 2014 (Local Time) from KMSS Reporting Station
Overcast Overcast  
Wind Chill: 38°   Ceiling: 1400
Heat Index: 45°   Visibility: 10mi
Dew Point: 39°   Wind: 17mph
Humidity: 80%   Direction: 40°NE
Pressure: 30.03"   Gusts: 23mph
Location:  44.7973°N, 74.4173°W
Report Text: KMSS 211953Z AUTO 04015G20KT 10SM OVC014 07/04 A3003 RMK AO2 SLP172 T00720039
Loading
Personal Weather Stations






























Interactive Weather Map
Tropical Storm Tracking
New forecast layout! Learn more

10-Day Weather Forecast

Advertisements
Track Severe Weather on mobile